sensor_id;sensor_type;location;lat;lon;timestamp;pressure;altitude;pressure_sealevel;temperature;humidity
73974;BME280;62336;-26.094;27.994;2022-10-22T00:00:16;85121.38;;;30.54;20.71
73974;BME280;62336;-26.094;27.994;2022-10-22T00:02:39;85116.23;;;30.22;20.82
73974;BME280;62336;-26.094;27.994;2022-10-22T00:05:05;85113.44;;;30.10;20.93
73974;BME280;62336;-26.094;27.994;2022-10-22T00:07:30;85114.85;;;30.09;20.97
73974;BME280;62336;-26.094;27.994;2022-10-22T00:09:55;85113.31;;;30.37;20.98
73974;BME280;62336;-26.094;27.994;2022-10-22T00:12:21;85118.09;;;30.20;20.88
73974;BME280;62336;-26.094;27.994;2022-10-22T00:14:47;85121.97;;;30.43;20.91
73974;BME280;62336;-26.094;27.994;2022-10-22T00:17:12;85125.11;;;29.80;21.11
73974;BME280;62336;-26.094;27.994;2022-10-22T00:19:38;85121.37;;;30.20;21.19
73974;BME280;62336;-26.094;27.994;2022-10-22T00:22:03;85120.67;;;30.31;21.04
73974;BME280;62336;-26.094;27.994;2022-10-22T00:24:28;85123.23;;;29.83;21.48
73974;BME280;62336;-26.094;27.994;2022-10-22T00:26:54;85123.16;;;29.90;21.51
73974;BME280;62336;-26.094;27.994;2022-10-22T00:29:20;85127.30;;;30.11;21.46
73974;BME280;62336;-26.094;27.994;2022-10-22T00:31:45;85127.44;;;30.00;21.44
73974;BME280;62336;-26.094;27.994;2022-10-22T00:34:10;85127.71;;;29.99;21.31
73974;BME280;62336;-26.094;27.994;2022-10-22T00:36:37;85119.20;;;30.22;21.25
73974;BME280;62336;-26.094;27.994;2022-10-22T00:39:01;85123.91;;;29.82;21.45
73974;BME280;62336;-26.094;27.994;2022-10-22T00:41:26;85120.51;;;30.33;21.13
73974;BME280;62336;-26.094;27.994;2022-10-22T00:43:55;85118.97;;;30.33;21.03
73974;BME280;62336;-26.094;27.994;2022-10-22T00:46:17;85118.13;;;29.96;21.06
73974;BME280;62336;-26.094;27.994;2022-10-22T00:48:42;85114.52;;;30.14;21.00
73974;BME280;62336;-26.094;27.994;2022-10-22T00:51:09;85110.41;;;30.06;20.73
73974;BME280;62336;-26.094;27.994;2022-10-22T00:53:37;85114.91;;;29.69;20.75
73974;BME280;62336;-26.094;27.994;2022-10-22T00:55:59;85117.29;;;29.95;20.63
73974;BME280;62336;-26.094;27.994;2022-10-22T00:58:27;85114.42;;;30.08;20.32
73974;BME280;62336;-26.094;27.994;2022-10-22T01:00:51;85114.15;;;30.16;20.21
73974;BME280;62336;-26.094;27.994;2022-10-22T01:03:16;85116.19;;;29.76;20.27
73974;BME280;62336;-26.094;27.994;2022-10-22T01:05:44;85107.70;;;30.17;20.01
73974;BME280;62336;-26.094;27.994;2022-10-22T01:08:13;85103.74;;;30.29;19.68
73974;BME280;62336;-26.094;27.994;2022-10-22T01:10:43;85107.42;;;30.00;19.80
73974;BME280;62336;-26.094;27.994;2022-10-22T01:13:07;85105.14;;;30.04;19.84
73974;BME280;62336;-26.094;27.994;2022-10-22T01:15:27;85099.61;;;30.36;19.64
73974;BME280;62336;-26.094;27.994;2022-10-22T01:17:53;85096.45;;;29.95;19.76
73974;BME280;62336;-26.094;27.994;2022-10-22T01:20:30;85096.24;;;30.19;19.60
73974;BME280;62336;-26.094;27.994;2022-10-22T01:22:41;85091.98;;;30.20;19.69
73974;BME280;62336;-26.094;27.994;2022-10-22T01:25:09;85087.21;;;30.63;19.57
73974;BME280;62336;-26.094;27.994;2022-10-22T01:27:37;85081.47;;;30.29;19.61
73974;BME280;62336;-26.094;27.994;2022-10-22T01:29:58;85074.57;;;30.35;19.70
73974;BME280;62336;-26.094;27.994;2022-10-22T01:32:22;85076.20;;;29.93;19.85
73974;BME280;62336;-26.094;27.994;2022-10-22T01:34:51;85069.57;;;30.35;19.68
73974;BME280;62336;-26.094;27.994;2022-10-22T01:37:12;85065.59;;;30.32;19.56
73974;BME280;62336;-26.094;27.994;2022-10-22T01:39:36;85063.33;;;30.37;19.70
73974;BME280;62336;-26.094;27.994;2022-10-22T01:42:02;85057.22;;;30.25;19.85
73974;BME280;62336;-26.094;27.994;2022-10-22T01:44:28;85049.66;;;30.27;19.84
73974;BME280;62336;-26.094;27.994;2022-10-22T01:47:00;85046.40;;;30.38;19.73
73974;BME280;62336;-26.094;27.994;2022-10-22T01:49:23;85045.70;;;30.11;19.92
73974;BME280;62336;-26.094;27.994;2022-10-22T01:51:51;85038.65;;;29.59;19.94
73974;BME280;62336;-26.094;27.994;2022-10-22T01:54:16;85036.03;;;29.42;19.85
73974;BME280;62336;-26.094;27.994;2022-10-22T01:56:46;85033.84;;;29.90;19.93
73974;BME280;62336;-26.094;27.994;2022-10-22T01:59:05;85027.00;;;30.24;19.94
73974;BME280;62336;-26.094;27.994;2022-10-22T02:01:29;85023.20;;;29.89;20.01
73974;BME280;62336;-26.094;27.994;2022-10-22T02:03:54;85025.06;;;29.89;20.13
73974;BME280;62336;-26.094;27.994;2022-10-22T02:06:17;85027.67;;;30.10;20.05
73974;BME280;62336;-26.094;27.994;2022-10-22T02:08:40;85025.95;;;29.94;20.23
73974;BME280;62336;-26.094;27.994;2022-10-22T02:11:05;85028.39;;;29.71;20.34
73974;BME280;62336;-26.094;27.994;2022-10-22T02:13:32;85027.00;;;30.24;19.98
73974;BME280;62336;-26.094;27.994;2022-10-22T02:15:57;85021.65;;;30.23;20.06
73974;BME280;62336;-26.094;27.994;2022-10-22T02:18:24;85021.78;;;30.37;19.97
73974;BME280;62336;-26.094;27.994;2022-10-22T02:20:46;85021.19;;;29.72;19.92
73974;BME280;62336;-26.094;27.994;2022-10-22T02:23:11;85022.41;;;29.86;19.83
73974;BME280;62336;-26.094;27.994;2022-10-22T02:25:40;85022.12;;;30.12;19.84
73974;BME280;62336;-26.094;27.994;2022-10-22T02:28:07;85021.32;;;29.79;20.06
73974;BME280;62336;-26.094;27.994;2022-10-22T02:30:28;85019.73;;;29.49;20.23
73974;BME280;62336;-26.094;27.994;2022-10-22T02:32:59;85022.92;;;29.84;20.12
73974;BME280;62336;-26.094;27.994;2022-10-22T02:35:22;85026.84;;;29.62;20.12
73974;BME280;62336;-26.094;27.994;2022-10-22T02:37:44;85026.59;;;29.61;20.14
73974;BME280;62336;-26.094;27.994;2022-10-22T02:40:10;85029.93;;;29.70;20.21
73974;BME280;62336;-26.094;27.994;2022-10-22T02:42:36;85036.88;;;29.92;20.05
73974;BME280;62336;-26.094;27.994;2022-10-22T02:45:00;85039.40;;;30.03;19.81
73974;BME280;62336;-26.094;27.994;2022-10-22T02:47:25;85041.16;;;29.92;19.87
73974;BME280;62336;-26.094;27.994;2022-10-22T02:49:50;85042.45;;;29.94;20.00
73974;BME280;62336;-26.094;27.994;2022-10-22T02:52:16;85044.74;;;30.34;19.92
73974;BME280;62336;-26.094;27.994;2022-10-22T02:54:42;85046.84;;;30.14;19.87
73974;BME280;62336;-26.094;27.994;2022-10-22T02:57:07;85050.12;;;30.04;19.97
73974;BME280;62336;-26.094;27.994;2022-10-22T02:59:33;85048.60;;;30.21;19.85
73974;BME280;62336;-26.094;27.994;2022-10-22T03:01:58;85049.67;;;29.65;19.94
73974;BME280;62336;-26.094;27.994;2022-10-22T03:04:24;85053.82;;;29.89;20.06
73974;BME280;62336;-26.094;27.994;2022-10-22T03:06:49;85058.74;;;29.92;19.88
73974;BME280;62336;-26.094;27.994;2022-10-22T03:09:15;85060.28;;;29.84;19.90
73974;BME280;62336;-26.094;27.994;2022-10-22T03:11:40;85063.53;;;29.90;19.86
73974;BME280;62336;-26.094;27.994;2022-10-22T03:14:05;85068.51;;;29.74;20.02
73974;BME280;62336;-26.094;27.994;2022-10-22T03:16:31;85075.34;;;30.05;19.99
73974;BME280;62336;-26.094;27.994;2022-10-22T03:18:55;85076.99;;;30.06;20.20
73974;BME280;62336;-26.094;27.994;2022-10-22T03:21:27;85077.66;;;30.16;20.08
73974;BME280;62336;-26.094;27.994;2022-10-22T03:23:47;85082.92;;;30.05;20.55
73974;BME280;62336;-26.094;27.994;2022-10-22T03:26:13;85084.23;;;29.92;20.35
73974;BME280;62336;-26.094;27.994;2022-10-22T03:28:40;85086.94;;;30.13;20.34
73974;BME280;62336;-26.094;27.994;2022-10-22T03:31:02;85087.71;;;30.00;20.60
73974;BME280;62336;-26.094;27.994;2022-10-22T03:33:28;85095.22;;;30.09;20.64
73974;BME280;62336;-26.094;27.994;2022-10-22T03:35:53;85097.32;;;30.02;20.79
73974;BME280;62336;-26.094;27.994;2022-10-22T03:38:19;85100.77;;;30.10;20.78
73974;BME280;62336;-26.094;27.994;2022-10-22T03:40:45;85105.17;;;30.02;20.75
73974;BME280;62336;-26.094;27.994;2022-10-22T03:43:10;85110.98;;;30.07;20.59
73974;BME280;62336;-26.094;27.994;2022-10-22T03:45:36;85118.27;;;30.21;20.62
73974;BME280;62336;-26.094;27.994;2022-10-22T03:48:01;85122.13;;;29.73;20.53
73974;BME280;62336;-26.094;27.994;2022-10-22T03:50:26;85124.18;;;30.05;20.59
73974;BME280;62336;-26.094;27.994;2022-10-22T03:52:52;85131.42;;;29.97;20.71
73974;BME280;62336;-26.094;27.994;2022-10-22T03:55:16;85132.40;;;29.83;20.78
73974;BME280;62336;-26.094;27.994;2022-10-22T03:57:42;85136.86;;;30.21;20.62
73974;BME280;62336;-26.094;27.994;2022-10-22T04:00:09;85140.97;;;29.91;20.74
73974;BME280;62336;-26.094;27.994;2022-10-22T04:02:32;85143.02;;;30.26;20.57
73974;BME280;62336;-26.094;27.994;2022-10-22T04:04:57;85150.43;;;30.02;20.57
73974;BME280;62336;-26.094;27.994;2022-10-22T04:07:23;85154.26;;;30.32;20.42
73974;BME280;62336;-26.094;27.994;2022-10-22T04:09:48;85158.52;;;30.38;20.59
73974;BME280;62336;-26.094;27.994;2022-10-22T04:12:13;85161.90;;;30.03;20.79
73974;BME280;62336;-26.094;27.994;2022-10-22T04:14:39;85165.75;;;30.10;20.71
73974;BME280;62336;-26.094;27.994;2022-10-22T04:17:04;85167.56;;;30.44;20.58
73974;BME280;62336;-26.094;27.994;2022-10-22T04:19:29;85170.34;;;30.11;20.62
73974;BME280;62336;-26.094;27.994;2022-10-22T04:21:57;85176.32;;;30.17;20.66
73974;BME280;62336;-26.094;27.994;2022-10-22T04:24:20;85179.65;;;30.37;20.58
73974;BME280;62336;-26.094;27.994;2022-10-22T04:26:46;85179.68;;;30.15;20.61
73974;BME280;62336;-26.094;27.994;2022-10-22T04:29:12;85183.43;;;30.05;20.52
73974;BME280;62336;-26.094;27.994;2022-10-22T04:31:39;85187.49;;;30.09;20.50
73974;BME280;62336;-26.094;27.994;2022-10-22T04:34:06;85187.69;;;30.32;20.65
73974;BME280;62336;-26.094;27.994;2022-10-22T04:36:28;85188.32;;;30.19;20.48
73974;BME280;62336;-26.094;27.994;2022-10-22T04:38:55;85191.99;;;29.96;20.69
73974;BME280;62336;-26.094;27.994;2022-10-22T04:41:20;85189.33;;;30.14;20.45
73974;BME280;62336;-26.094;27.994;2022-10-22T04:43:45;85190.37;;;29.87;20.54
73974;BME280;62336;-26.094;27.994;2022-10-22T04:46:11;85189.37;;;30.43;20.35
73974;BME280;62336;-26.094;27.994;2022-10-22T04:48:36;85188.91;;;30.58;20.25
73974;BME280;62336;-26.094;27.994;2022-10-22T04:51:01;85191.23;;;30.52;20.36
73974;BME280;62336;-26.094;27.994;2022-10-22T04:53:25;85197.05;;;30.25;20.35
73974;BME280;62336;-26.094;27.994;2022-10-22T04:55:51;85199.34;;;30.39;20.19
73974;BME280;62336;-26.094;27.994;2022-10-22T04:58:17;85204.84;;;30.65;20.07
73974;BME280;62336;-26.094;27.994;2022-10-22T05:00:43;85205.56;;;30.70;20.26
73974;BME280;62336;-26.094;27.994;2022-10-22T05:03:08;85203.96;;;30.92;20.28
73974;BME280;62336;-26.094;27.994;2022-10-22T05:05:33;85200.21;;;31.00;20.21
73974;BME280;62336;-26.094;27.994;2022-10-22T05:07:59;85208.25;;;30.99;20.22
73974;BME280;62336;-26.094;27.994;2022-10-22T05:10:25;85216.51;;;31.10;19.45
73974;BME280;62336;-26.094;27.994;2022-10-22T05:12:50;85222.74;;;30.88;20.31
73974;BME280;62336;-26.094;27.994;2022-10-22T05:15:16;85227.53;;;31.24;20.30
73974;BME280;62336;-26.094;27.994;2022-10-22T05:17:46;85231.35;;;31.46;19.88
73974;BME280;62336;-26.094;27.994;2022-10-22T05:20:08;85232.41;;;31.58;19.75
73974;BME280;62336;-26.094;27.994;2022-10-22T05:22:33;85233.71;;;31.66;19.46
73974;BME280;62336;-26.094;27.994;2022-10-22T05:24:57;85236.07;;;31.81;19.51
73974;BME280;62336;-26.094;27.994;2022-10-22T05:27:23;85232.95;;;32.17;19.53
73974;BME280;62336;-26.094;27.994;2022-10-22T05:29:48;85226.60;;;32.44;18.91
73974;BME280;62336;-26.094;27.994;2022-10-22T05:32:14;85226.93;;;31.83;18.93
73974;BME280;62336;-26.094;27.994;2022-10-22T05:34:39;85229.54;;;32.20;18.48
73974;BME280;62336;-26.094;27.994;2022-10-22T05:37:05;85227.00;;;31.93;18.59
73974;BME280;62336;-26.094;27.994;2022-10-22T05:39:30;85228.15;;;31.87;19.07
73974;BME280;62336;-26.094;27.994;2022-10-22T05:41:56;85226.83;;;32.01;19.21
73974;BME280;62336;-26.094;27.994;2022-10-22T05:44:21;85223.41;;;32.41;18.14
73974;BME280;62336;-26.094;27.994;2022-10-22T05:46:46;85220.42;;;32.68;18.21
73974;BME280;62336;-26.094;27.994;2022-10-22T05:49:13;85228.40;;;31.90;23.35
73974;BME280;62336;-26.094;27.994;2022-10-22T05:51:38;85227.89;;;32.47;18.55
73974;BME280;62336;-26.094;27.994;2022-10-22T05:54:05;85226.94;;;31.79;18.59
73974;BME280;62336;-26.094;27.994;2022-10-22T05:56:29;85223.90;;;32.11;18.11
73974;BME280;62336;-26.094;27.994;2022-10-22T05:58:53;85223.60;;;31.71;18.38
73974;BME280;62336;-26.094;27.994;2022-10-22T06:01:20;85218.21;;;32.15;18.14
73974;BME280;62336;-26.094;27.994;2022-10-22T06:03:45;85217.66;;;32.46;17.82
73974;BME280;62336;-26.094;27.994;2022-10-22T06:06:19;85217.68;;;32.73;17.69
73974;BME280;62336;-26.094;27.994;2022-10-22T06:08:35;85212.08;;;32.92;17.32
73974;BME280;62336;-26.094;27.994;2022-10-22T06:11:00;85215.87;;;32.94;17.50
73974;BME280;62336;-26.094;27.994;2022-10-22T06:13:25;85219.11;;;32.57;17.40
73974;BME280;62336;-26.094;27.994;2022-10-22T06:15:50;85220.06;;;32.78;17.19
73974;BME280;62336;-26.094;27.994;2022-10-22T06:18:16;85213.52;;;33.01;16.78
73974;BME280;62336;-26.094;27.994;2022-10-22T06:20:42;85213.19;;;33.00;17.23
73974;BME280;62336;-26.094;27.994;2022-10-22T06:23:07;85214.72;;;33.17;17.08
73974;BME280;62336;-26.094;27.994;2022-10-22T06:25:33;85215.60;;;33.52;16.93
73974;BME280;62336;-26.094;27.994;2022-10-22T06:27:58;85217.25;;;33.61;16.56
73974;BME280;62336;-26.094;27.994;2022-10-22T06:30:23;85218.00;;;33.76;16.22
73974;BME280;62336;-26.094;27.994;2022-10-22T06:32:48;85215.18;;;34.11;16.29
73974;BME280;62336;-26.094;27.994;2022-10-22T06:35:14;85213.43;;;33.86;16.17
73974;BME280;62336;-26.094;27.994;2022-10-22T06:37:39;85207.96;;;34.17;15.95
73974;BME280;62336;-26.094;27.994;2022-10-22T06:40:06;85202.74;;;33.50;16.42
73974;BME280;62336;-26.094;27.994;2022-10-22T06:42:30;85198.57;;;34.06;16.00
73974;BME280;62336;-26.094;27.994;2022-10-22T06:44:56;85190.06;;;34.35;15.81
73974;BME280;62336;-26.094;27.994;2022-10-22T06:47:22;85191.17;;;33.91;16.09
73974;BME280;62336;-26.094;27.994;2022-10-22T06:49:48;85191.29;;;33.81;15.77
73974;BME280;62336;-26.094;27.994;2022-10-22T06:52:13;85187.61;;;33.43;15.84
73974;BME280;62336;-26.094;27.994;2022-10-22T06:54:40;85186.86;;;33.71;15.75
73974;BME280;62336;-26.094;27.994;2022-10-22T06:57:04;85183.75;;;34.39;15.63
73974;BME280;62336;-26.094;27.994;2022-10-22T06:59:30;85180.23;;;34.03;15.71
73974;BME280;62336;-26.094;27.994;2022-10-22T07:01:55;85180.14;;;34.20;15.21
73974;BME280;62336;-26.094;27.994;2022-10-22T07:04:20;85174.93;;;34.40;15.42
73974;BME280;62336;-26.094;27.994;2022-10-22T07:06:47;85172.82;;;34.81;15.67
73974;BME280;62336;-26.094;27.994;2022-10-22T07:09:12;85170.82;;;34.72;15.53
73974;BME280;62336;-26.094;27.994;2022-10-22T07:11:40;85168.98;;;34.97;15.42
73974;BME280;62336;-26.094;27.994;2022-10-22T07:14:02;85167.86;;;35.11;15.32
73974;BME280;62336;-26.094;27.994;2022-10-22T07:16:28;85167.29;;;35.15;15.07
73974;BME280;62336;-26.094;27.994;2022-10-22T07:18:53;85165.48;;;34.92;14.79
73974;BME280;62336;-26.094;27.994;2022-10-22T07:21:19;85161.64;;;35.08;14.62
73974;BME280;62336;-26.094;27.994;2022-10-22T07:23:44;85154.72;;;35.14;14.38
73974;BME280;62336;-26.094;27.994;2022-10-22T07:26:11;85146.88;;;34.41;14.65
73974;BME280;62336;-26.094;27.994;2022-10-22T07:28:35;85145.07;;;35.01;14.88
73974;BME280;62336;-26.094;27.994;2022-10-22T07:31:00;85141.19;;;35.59;14.60
73974;BME280;62336;-26.094;27.994;2022-10-22T07:33:26;85140.06;;;35.04;14.81
73974;BME280;62336;-26.094;27.994;2022-10-22T08:09:42;85128.28;;;19.02;37.98
73974;BME280;62336;-26.094;27.994;2022-10-22T08:12:05;85122.07;;;23.86;31.60
73974;BME280;62336;-26.094;27.994;2022-10-22T08:14:29;85116.51;;;26.99;25.21
73974;BME280;62336;-26.094;27.994;2022-10-22T08:16:55;85115.35;;;29.15;22.08
73974;BME280;62336;-26.094;27.994;2022-10-22T08:19:20;85110.26;;;30.95;20.18
73974;BME280;62336;-26.094;27.994;2022-10-22T08:21:46;85111.39;;;32.57;18.52
73974;BME280;62336;-26.094;27.994;2022-10-22T08:24:11;85116.18;;;33.65;17.32
73974;BME280;62336;-26.094;27.994;2022-10-22T08:26:37;85115.12;;;34.39;15.69
73974;BME280;62336;-26.094;27.994;2022-10-22T14:15:54;84992.81;;;13.35;100.00
73974;BME280;62336;-26.094;27.994;2022-10-22T14:18:22;84985.44;;;16.97;91.71
73974;BME280;62336;-26.094;27.994;2022-10-22T14:20:45;84983.93;;;20.52;67.86
73974;BME280;62336;-26.094;27.994;2022-10-22T14:23:14;84991.49;;;22.84;57.25
73974;BME280;62336;-26.094;27.994;2022-10-22T14:25:35;84991.31;;;24.52;49.96
73974;BME280;62336;-26.094;27.994;2022-10-22T14:28:01;84996.00;;;25.72;45.92
73974;BME280;62336;-26.094;27.994;2022-10-22T14:30:26;85004.84;;;26.71;42.38
73974;BME280;62336;-26.094;27.994;2022-10-22T14:32:52;85010.73;;;28.27;39.03
73974;BME280;62336;-26.094;27.994;2022-10-22T14:35:19;85016.71;;;29.00;37.00
73974;BME280;62336;-26.094;27.994;2022-10-22T14:37:42;85009.85;;;29.81;35.12
73974;BME280;62336;-26.094;27.994;2022-10-22T14:40:10;85005.66;;;29.64;34.43
73974;BME280;62336;-26.094;27.994;2022-10-22T14:42:36;85004.03;;;29.86;33.97
73974;BME280;62336;-26.094;27.994;2022-10-22T14:44:59;85005.85;;;30.20;33.84
73974;BME280;62336;-26.094;27.994;2022-10-22T14:47:24;85009.67;;;30.22;33.50
73974;BME280;62336;-26.094;27.994;2022-10-22T14:49:49;85014.22;;;30.44;32.89
73974;BME280;62336;-26.094;27.994;2022-10-22T14:52:15;85015.83;;;30.36;32.75
73974;BME280;62336;-26.094;27.994;2022-10-22T14:54:41;85016.74;;;30.61;32.47
73974;BME280;62336;-26.094;27.994;2022-10-22T14:57:06;85024.02;;;30.81;32.09
73974;BME280;62336;-26.094;27.994;2022-10-22T14:59:32;85030.95;;;30.72;31.80
73974;BME280;62336;-26.094;27.994;2022-10-22T15:01:57;85039.53;;;30.82;31.48
73974;BME280;62336;-26.094;27.994;2022-10-22T15:04:23;85045.15;;;30.94;31.32
73974;BME280;62336;-26.094;27.994;2022-10-22T15:06:48;85044.96;;;31.09;31.11
73974;BME280;62336;-26.094;27.994;2022-10-22T15:09:14;85041.12;;;30.71;30.99
73974;BME280;62336;-26.094;27.994;2022-10-22T15:11:40;85040.68;;;31.27;30.89
73974;BME280;62336;-26.094;27.994;2022-10-22T15:14:05;85039.84;;;31.17;30.98
73974;BME280;62336;-26.094;27.994;2022-10-22T15:16:30;85040.13;;;30.94;30.67
73974;BME280;62336;-26.094;27.994;2022-10-22T15:18:55;85047.02;;;30.68;30.59
73974;BME280;62336;-26.094;27.994;2022-10-22T15:21:22;85054.90;;;30.80;30.51
73974;BME280;62336;-26.094;27.994;2022-10-22T15:23:47;85060.33;;;30.96;30.26
73974;BME280;62336;-26.094;27.994;2022-10-22T15:26:13;85059.34;;;30.65;29.94
73974;BME280;62336;-26.094;27.994;2022-10-22T15:28:39;85058.46;;;30.24;30.34
73974;BME280;62336;-26.094;27.994;2022-10-22T15:31:03;85061.19;;;30.59;30.36
73974;BME280;62336;-26.094;27.994;2022-10-22T15:33:28;85062.31;;;30.87;30.31
73974;BME280;62336;-26.094;27.994;2022-10-22T15:35:54;85062.25;;;30.67;30.13
73974;BME280;62336;-26.094;27.994;2022-10-22T15:38:18;85062.53;;;31.40;29.99
73974;BME280;62336;-26.094;27.994;2022-10-22T15:40:44;85061.00;;;30.77;30.04
73974;BME280;62336;-26.094;27.994;2022-10-22T15:43:09;85057.88;;;31.19;29.75
73974;BME280;62336;-26.094;27.994;2022-10-22T15:45:36;85056.75;;;31.29;29.59
73974;BME280;62336;-26.094;27.994;2022-10-22T15:48:00;85056.16;;;31.34;29.68
73974;BME280;62336;-26.094;27.994;2022-10-22T15:50:26;85057.97;;;30.81;29.71
73974;BME280;62336;-26.094;27.994;2022-10-22T15:52:50;85053.31;;;30.93;29.51
73974;BME280;62336;-26.094;27.994;2022-10-22T15:55:15;85040.36;;;30.80;29.17
73974;BME280;62336;-26.094;27.994;2022-10-22T15:57:41;85035.04;;;30.68;28.70
73974;BME280;62336;-26.094;27.994;2022-10-22T16:00:07;85031.57;;;30.72;28.79
73974;BME280;62336;-26.094;27.994;2022-10-22T16:02:32;85032.28;;;30.77;29.23
73974;BME280;62336;-26.094;27.994;2022-10-22T16:04:57;85029.02;;;30.78;29.40
73974;BME280;62336;-26.094;27.994;2022-10-22T16:07:23;85025.66;;;30.62;29.23
73974;BME280;62336;-26.094;27.994;2022-10-22T16:09:48;85031.59;;;30.91;29.19
73974;BME280;62336;-26.094;27.994;2022-10-22T16:12:14;85041.29;;;30.64;29.53
73974;BME280;62336;-26.094;27.994;2022-10-22T16:14:40;85046.86;;;30.85;29.08
73974;BME280;62336;-26.094;27.994;2022-10-22T16:17:05;85051.81;;;30.23;29.37
73974;BME280;62336;-26.094;27.994;2022-10-22T16:19:31;85054.91;;;30.53;29.55
73974;BME280;62336;-26.094;27.994;2022-10-22T16:21:56;85055.78;;;30.47;29.72
73974;BME280;62336;-26.094;27.994;2022-10-22T16:24:22;85061.22;;;30.38;29.83
73974;BME280;62336;-26.094;27.994;2022-10-22T16:26:47;85062.44;;;30.36;29.78
73974;BME280;62336;-26.094;27.994;2022-10-22T16:29:13;85063.18;;;30.29;29.54
73974;BME280;62336;-26.094;27.994;2022-10-22T16:31:39;85068.30;;;29.92;29.32
73974;BME280;62336;-26.094;27.994;2022-10-22T16:34:04;85070.92;;;30.43;29.55
73974;BME280;62336;-26.094;27.994;2022-10-22T16:36:29;85073.59;;;30.53;29.34
73974;BME280;62336;-26.094;27.994;2022-10-22T16:38:55;85071.57;;;30.01;29.42
73974;BME280;62336;-26.094;27.994;2022-10-22T16:41:22;85068.02;;;29.96;29.43
73974;BME280;62336;-26.094;27.994;2022-10-22T16:43:48;85066.65;;;30.33;29.28
73974;BME280;62336;-26.094;27.994;2022-10-22T16:46:11;85068.82;;;30.09;29.90
73974;BME280;62336;-26.094;27.994;2022-10-22T16:48:37;85071.57;;;30.05;29.39
73974;BME280;62336;-26.094;27.994;2022-10-22T16:51:07;85081.05;;;30.14;29.22
73974;BME280;62336;-26.094;27.994;2022-10-22T16:53:27;85093.63;;;30.34;29.27
73974;BME280;62336;-26.094;27.994;2022-10-22T16:55:53;85096.31;;;30.55;28.97
73974;BME280;62336;-26.094;27.994;2022-10-22T16:58:25;85098.10;;;29.89;28.80
73974;BME280;62336;-26.094;27.994;2022-10-22T17:00:51;85093.91;;;30.71;27.62
73974;BME280;62336;-26.094;27.994;2022-10-22T17:03:16;85097.49;;;30.66;27.25
73974;BME280;62336;-26.094;27.994;2022-10-22T17:05:41;85097.66;;;30.58;27.26
73974;BME280;62336;-26.094;27.994;2022-10-22T17:08:06;85100.10;;;30.70;27.16
73974;BME280;62336;-26.094;27.994;2022-10-22T17:10:34;85106.98;;;31.17;26.77
73974;BME280;62336;-26.094;27.994;2022-10-22T17:12:57;85113.98;;;31.43;26.68
73974;BME280;62336;-26.094;27.994;2022-10-22T17:15:22;85120.51;;;31.47;26.62
73974;BME280;62336;-26.094;27.994;2022-10-22T17:17:48;85123.27;;;31.17;26.81
73974;BME280;62336;-26.094;27.994;2022-10-22T17:20:13;85125.15;;;30.82;26.88
73974;BME280;62336;-26.094;27.994;2022-10-22T17:22:38;85133.16;;;30.90;26.61
73974;BME280;62336;-26.094;27.994;2022-10-22T17:25:10;85137.78;;;31.00;26.42
73974;BME280;62336;-26.094;27.994;2022-10-22T17:27:29;85141.22;;;30.91;26.75
73974;BME280;62336;-26.094;27.994;2022-10-22T17:29:55;85139.33;;;30.52;26.60
73974;BME280;62336;-26.094;27.994;2022-10-22T17:32:21;85140.41;;;30.77;26.62
73974;BME280;62336;-26.094;27.994;2022-10-22T17:34:46;85145.99;;;30.83;25.61
73974;BME280;62336;-26.094;27.994;2022-10-22T17:37:12;85146.39;;;30.97;26.15
73974;BME280;62336;-26.094;27.994;2022-10-22T17:39:38;85149.16;;;30.79;26.46
73974;BME280;62336;-26.094;27.994;2022-10-22T17:42:03;85152.27;;;30.55;26.16
73974;BME280;62336;-26.094;27.994;2022-10-22T17:44:29;85155.75;;;30.64;25.96
73974;BME280;62336;-26.094;27.994;2022-10-22T17:46:54;85159.39;;;30.93;26.17
73974;BME280;62336;-26.094;27.994;2022-10-22T17:49:19;85167.42;;;30.96;25.58
73974;BME280;62336;-26.094;27.994;2022-10-22T17:51:45;85172.16;;;31.00;25.80
73974;BME280;62336;-26.094;27.994;2022-10-22T17:54:10;85179.54;;;31.14;25.77
73974;BME280;62336;-26.094;27.994;2022-10-22T17:56:35;85184.84;;;30.94;25.72
73974;BME280;62336;-26.094;27.994;2022-10-22T17:59:01;85189.20;;;30.58;26.27
73974;BME280;62336;-26.094;27.994;2022-10-22T18:01:28;85192.15;;;30.70;26.18
73974;BME280;62336;-26.094;27.994;2022-10-22T18:03:53;85196.68;;;30.79;26.37
73974;BME280;62336;-26.094;27.994;2022-10-22T18:06:17;85198.56;;;30.73;25.79
73974;BME280;62336;-26.094;27.994;2022-10-22T18:08:43;85201.91;;;31.09;25.84
73974;BME280;62336;-26.094;27.994;2022-10-22T18:11:10;85207.89;;;30.61;26.02
73974;BME280;62336;-26.094;27.994;2022-10-22T18:13:34;85207.20;;;30.28;25.96
73974;BME280;62336;-26.094;27.994;2022-10-22T18:15:59;85212.46;;;30.61;26.32
73974;BME280;62336;-26.094;27.994;2022-10-22T18:18:25;85214.67;;;30.73;25.97
73974;BME280;62336;-26.094;27.994;2022-10-22T18:20:53;85216.27;;;30.65;25.96
73974;BME280;62336;-26.094;27.994;2022-10-22T18:23:16;85223.65;;;30.86;25.56
73974;BME280;62336;-26.094;27.994;2022-10-22T18:25:42;85230.85;;;30.70;26.06
73974;BME280;62336;-26.094;27.994;2022-10-22T18:28:07;85236.26;;;31.07;26.38
73974;BME280;62336;-26.094;27.994;2022-10-22T18:30:33;85240.91;;;30.85;25.92
73974;BME280;62336;-26.094;27.994;2022-10-22T18:32:58;85249.17;;;30.88;25.43
73974;BME280;62336;-26.094;27.994;2022-10-22T18:35:23;85254.03;;;30.89;25.81
73974;BME280;62336;-26.094;27.994;2022-10-22T18:37:49;85254.13;;;30.91;25.50
73974;BME280;62336;-26.094;27.994;2022-10-22T18:40:14;85259.67;;;30.71;25.38
73974;BME280;62336;-26.094;27.994;2022-10-22T18:42:40;85270.27;;;30.31;25.92
73974;BME280;62336;-26.094;27.994;2022-10-22T18:45:06;85275.60;;;30.53;26.39
73974;BME280;62336;-26.094;27.994;2022-10-22T18:47:30;85282.03;;;30.44;26.07
73974;BME280;62336;-26.094;27.994;2022-10-22T18:49:56;85284.22;;;30.75;25.95